Time;durP1;ratioP1;P1;durP2;ratioP2;P2;SDS_P1;SDS_P2;PMS_P1;PMS_P2;Temp;Humidity;BMP_temperature;BMP_pressure;BME280_temperature;BME280_humidity;BME280_pressure;Samples;Min_cycle;Max_cycle;Signal;HPM_P1;HPM_P2
2021/12/24 00:01:04;;;;;;;2.53;1.10;;;27.40;99.90;;;;;;5105619;28;20580;-77
2021/12/24 00:03:33;;;;;;;2.38;1.50;;;27.70;99.90;;;;;;5102548;28;20027;-75
2021/12/24 00:06:01;;;;;;;3.75;1.92;;;28.00;99.90;;;;;;5109405;28;20439;-75
2021/12/24 00:08:29;;;;;;;2.97;1.60;;;28.00;99.90;;;;;;5109171;28;20031;-72
2021/12/24 00:11:01;;;;;;;2.78;2.13;;;28.20;99.90;;;;;;5109464;28;20028;-74
2021/12/24 00:13:39;;;;;;;2.17;1.48;;;28.20;99.90;;;;;;5106596;28;20024;-79
2021/12/24 00:16:22;;;;;;;3.80;1.80;;;28.20;99.90;;;;;;5108259;28;20030;-75
2021/12/24 00:35:16;;;;;;;2.78;2.22;;;28.40;99.90;;;;;;5105683;28;20043;-73
2021/12/24 00:37:46;;;;;;;4.07;2.40;;;28.40;99.90;;;;;;5108159;28;20056;-76
2021/12/24 00:40:19;;;;;;;4.50;3.03;;;28.30;99.60;;;;;;5007112;28;2827158;-77
2021/12/24 00:42:49;;;;;;;3.60;2.97;;;28.00;99.90;;;;;;5107779;28;20089;-79
2021/12/24 00:45:29;;;;;;;4.40;4.00;;;27.90;99.90;;;;;;5103137;28;20047;-78
2021/12/24 00:47:58;;;;;;;4.03;3.03;;;27.70;99.90;;;;;;5103199;28;20043;-77
2021/12/24 00:50:29;;;;;;;4.93;3.97;;;27.60;99.90;;;;;;5106577;28;20016;-79
2021/12/24 00:53:02;;;;;;;5.13;3.35;;;27.50;99.90;;;;;;5108125;28;20024;-78
2021/12/24 00:55:32;;;;;;;3.78;3.25;;;27.50;99.90;;;;;;5106697;28;20052;-78
2021/12/24 00:58:02;;;;;;;7.40;5.28;;;27.70;99.90;;;;;;5106031;28;20039;-80
2021/12/24 01:00:40;;;;;;;5.50;4.75;;;27.70;99.90;;;;;;5100803;28;20019;-80
2021/12/24 01:03:10;;;;;;;5.20;4.20;;;27.70;99.90;;;;;;5108659;28;20036;-79
2021/12/24 01:05:38;;;;;;;5.18;4.00;;;27.90;99.90;;;;;;5104464;28;20109;-80
2021/12/24 01:08:08;;;;;;;5.82;4.90;;;28.20;99.90;;;;;;5107850;28;20034;-77
2021/12/24 01:10:46;;;;;;;6.57;4.82;;;28.30;99.10;;;;;;5100347;28;20024;-75
2021/12/24 01:13:14;;;;;;;6.88;5.43;;;28.40;99.90;;;;;;5103977;28;20118;-77
2021/12/24 01:15:54;;;;;;;8.57;4.88;;;28.80;99.10;;;;;;5100361;28;20024;-76
2021/12/24 01:23:58;;;;;;;7.28;5.47;;;30.10;97.30;;;;;;5086197;28;20114;-75
2021/12/24 01:26:48;;;;;;;5.15;4.25;;;30.30;97.50;;;;;;5103095;28;20027;-76
2021/12/24 01:40:22;;;;;;;9.10;4.93;;;30.20;96.50;;;;;;5113567;28;20493;-78
2021/12/24 01:42:51;;;;;;;6.57;4.38;;;30.80;96.30;;;;;;5107557;28;20547;-79
2021/12/24 01:45:30;;;;;;;5.65;4.22;;;31.00;95.80;;;;;;5113447;28;20031;-76
2021/12/24 01:48:07;;;;;;;5.72;3.88;;;31.10;95.50;;;;;;5109250;28;20483;-82
2021/12/24 01:50:36;;;;;;;4.20;3.78;;;31.00;96.20;;;;;;5111798;28;20134;-76
2021/12/24 01:53:06;;;;;;;4.90;3.20;;;30.80;96.70;;;;;;5111493;27;20031;-74
2021/12/24 01:55:34;;;;;;;4.90;3.70;;;30.60;95.60;;;;;;5103772;28;20028;-72
2021/12/24 01:58:01;;;;;;;6.40;3.60;;;30.20;96.10;;;;;;5109719;27;20034;-74
2021/12/24 02:00:33;;;;;;;5.18;4.15;;;30.00;96.40;;;;;;5111658;28;20016;-75
2021/12/24 02:03:00;;;;;;;4.88;4.00;;;30.20;96.60;;;;;;5106304;28;20092;-78
2021/12/24 02:05:29;;;;;;;5.90;3.42;;;31.00;97.40;;;;;;5108011;28;20087;-78
2021/12/24 02:07:57;;;;;;;3.88;3.22;;;31.30;95.80;;;;;;5112653;28;20500;-78
2021/12/24 02:10:24;;;;;;;5.68;3.28;;;31.50;96.00;;;;;;5113826;28;20481;-79
2021/12/24 02:12:53;;;;;;;3.42;2.67;;;31.40;93.30;;;;;;5105790;28;20024;-77
2021/12/24 02:18:20;;;;;;;;;;;;;;;;;;;;;
2021/12/24 02:29:09;;;;;;;3.15;1.35;;;30.10;96.10;;;;;;5048472;28;20360;-79
2021/12/24 02:31:36;;;;;;;4.85;1.50;;;29.80;96.70;;;;;;5082131;28;20066;-77
2021/12/24 02:34:04;;;;;;;3.17;1.55;;;30.20;96.60;;;;;;5110111;27;20493;-77
2021/12/24 02:36:31;;;;;;;2.95;1.45;;;30.60;95.90;;;;;;5110050;28;20024;-77
2021/12/24 02:38:59;;;;;;;2.08;1.83;;;30.70;96.10;;;;;;5112183;28;20072;-78
2021/12/24 02:41:26;;;;;;;2.78;1.65;;;31.00;95.20;;;;;;5085356;28;20377;-74
2021/12/24 02:43:53;;;;;;;4.20;1.55;;;31.30;95.10;;;;;;5094617;28;20020;-78
2021/12/24 02:46:37;;;;;;;2.80;1.75;;;31.50;94.30;;;;;;5111393;28;20501;-78
2021/12/24 02:54:23;;;;;;;3.15;1.60;;;31.60;94.00;;;;;;5099839;28;20031;-77
2021/12/24 02:56:52;;;;;;;2.78;1.55;;;31.00;94.80;;;;;;5103299;28;20039;-76
2021/12/24 02:59:30;;;;;;;2.42;1.13;;;30.60;94.90;;;;;;5110472;28;20363;-76
2021/12/24 03:01:58;;;;;;;4.22;2.35;;;30.60;94.90;;;;;;5100170;28;20111;-76
2021/12/24 03:04:27;;;;;;;2.13;1.38;;;30.80;95.10;;;;;;5101664;27;20039;-76
2021/12/24 03:06:54;;;;;;;1.75;1.30;;;30.70;94.90;;;;;;5106735;27;20503;-78
2021/12/24 03:09:22;;;;;;;2.90;1.40;;;31.00;95.20;;;;;;5101388;28;20031;-75
2021/12/24 03:11:52;;;;;;;4.25;1.42;;;31.40;94.60;;;;;;5108585;27;20030;-75
2021/12/24 03:14:20;;;;;;;3.60;1.67;;;31.80;93.50;;;;;;5108659;28;20031;-78
2021/12/24 03:16:58;;;;;;;2.78;1.70;;;32.10;93.30;;;;;;5108917;28;20016;-79
2021/12/24 03:19:30;;;;;;;2.65;1.50;;;32.00;93.30;;;;;;5106039;28;20375;-77
2021/12/24 03:22:13;;;;;;;6.40;1.17;;;31.50;93.50;;;;;;5085318;28;23231;-77
2021/12/24 03:24:40;;;;;;;2.78;1.42;;;31.70;93.70;;;;;;5095361;28;20039;-77
2021/12/24 03:27:10;;;;;;;3.33;1.48;;;32.10;94.50;;;;;;5107019;28;20057;-77
2021/12/24 03:29:37;;;;;;;2.60;1.15;;;31.50;93.10;;;;;;5109811;28;20027;-77
2021/12/24 03:32:05;;;;;;;3.10;1.50;;;31.40;93.60;;;;;;5105240;28;20020;-79
2021/12/24 03:34:33;;;;;;;5.93;1.63;;;31.50;93.90;;;;;;5077947;28;20042;-78
2021/12/24 03:37:01;;;;;;;2.65;1.20;;;31.80;93.40;;;;;;5104219;28;20077;-76
2021/12/24 03:39:29;;;;;;;3.67;1.77;;;31.80;93.50;;;;;;5107699;28;20409;-79
2021/12/24 03:41:57;;;;;;;2.05;1.60;;;31.90;93.10;;;;;;5107496;28;20025;-81
2021/12/24 03:44:34;;;;;;;3.83;1.83;;;31.80;92.60;;;;;;5107891;28;20473;-79
2021/12/24 03:47:16;;;;;;;3.33;1.35;;;31.70;92.80;;;;;;5088155;28;20037;-79
2021/12/24 03:54:58;;;;;;;2.03;1.42;;;31.80;92.80;;;;;;5107893;28;20020;-77
2021/12/24 03:57:27;;;;;;;2.78;1.42;;;31.70;92.70;;;;;;5108037;28;20027;-77
2021/12/24 03:59:56;;;;;;;3.55;1.67;;;32.00;92.30;;;;;;5107381;28;20023;-77
2021/12/24 04:02:24;;;;;;;2.90;2.03;;;31.90;92.80;;;;;;5108376;28;20561;-77
2021/12/24 04:04:52;;;;;;;3.17;1.30;;;32.20;92.50;;;;;;5108338;28;20504;-76
2021/12/24 04:07:20;;;;;;;3.17;1.30;;;32.50;92.00;;;;;;5105201;28;20020;-77
2021/12/24 04:10:01;;;;;;;4.82;1.42;;;32.60;91.90;;;;;;5109589;28;20016;-77
2021/12/24 04:12:28;;;;;;;3.67;1.38;;;33.00;91.30;;;;;;5105035;28;20024;-77
2021/12/24 04:14:56;;;;;;;3.13;1.20;;;32.60;91.20;;;;;;5107252;28;20473;-79
2021/12/24 04:17:23;;;;;;;3.50;1.73;;;32.30;91.70;;;;;;5105041;28;20039;-78
2021/12/24 04:25:30;;;;;;;;;;;32.50;91.10;;;;;;5107268;28;20500;-77
2021/12/24 04:27:59;;;;;;;3.42;1.50;;;32.40;91.10;;;;;;5101567;28;20262;-77
2021/12/24 04:30:35;;;;;;;5.88;1.90;;;32.70;91.40;;;;;;5108410;28;20036;-76
2021/12/24 04:33:09;;;;;;;2.85;1.40;;;33.10;91.00;;;;;;5101260;28;20044;-77
2021/12/24 04:35:42;;;;;;;2.47;1.60;;;32.40;90.70;;;;;;5106957;28;20027;-76
2021/12/24 04:51:56;;;;;;;;;;;31.00;92.20;;;;;;5109444;28;20115;-77
2021/12/24 05:02:54;;;;;;;4.50;2.78;;;30.80;92.30;;;;;;5097780;28;20421;-77
2021/12/24 05:05:36;;;;;;;4.97;2.25;;;30.70;92.80;;;;;;5100053;28;20070;-77
2021/12/24 05:08:25;;;;;;;4.20;2.00;;;30.60;93.00;;;;;;5101560;28;20024;-76
2021/12/24 05:10:53;;;;;;;2.47;1.48;;;30.60;92.70;;;;;;5084004;28;20158;-75
2021/12/24 05:13:23;;;;;;;3.47;1.23;;;30.70;93.00;;;;;;5104744;28;20027;-75
2021/12/24 05:15:57;;;;;;;3.53;1.65;;;30.60;93.10;;;;;;5108393;28;20110;-76
2021/12/24 05:18:33;;;;;;;6.28;1.30;;;30.40;93.30;;;;;;5102698;28;20031;-77
2021/12/24 05:23:46;;;;;;;;;;;30.00;94.30;;;;;;5093774;28;20067;-76
2021/12/24 05:26:14;;;;;;;2.72;1.40;;;29.90;94.50;;;;;;5114055;28;20850;-77
2021/12/24 05:28:42;;;;;;;2.70;1.10;;;29.90;94.80;;;;;;5110464;28;20032;-77
2021/12/24 05:31:09;;;;;;;3.38;1.15;;;29.80;94.80;;;;;;5109863;28;20034;-76
2021/12/24 05:33:37;;;;;;;3.88;1.77;;;29.60;95.20;;;;;;5109971;28;20059;-77
2021/12/24 05:36:04;;;;;;;3.42;1.55;;;29.70;95.50;;;;;;5110288;28;20044;-77
2021/12/24 05:38:31;;;;;;;6.20;2.63;;;29.90;95.40;;;;;;5094195;28;20031;-77
2021/12/24 05:40:59;;;;;;;4.18;1.85;;;30.00;95.30;;;;;;5110871;27;20031;-77
2021/12/24 05:43:27;;;;;;;3.50;2.10;;;30.10;95.00;;;;;;5107439;27;20016;-75
2021/12/24 05:45:54;;;;;;;3.35;1.67;;;30.00;95.50;;;;;;5086736;27;20028;-76
2021/12/24 05:48:22;;;;;;;2.40;1.48;;;30.10;95.00;;;;;;5111791;27;20034;-77
2021/12/24 05:50:49;;;;;;;3.42;1.35;;;30.10;95.20;;;;;;5110400;28;20027;-77
2021/12/24 05:53:17;;;;;;;3.17;1.13;;;30.10;95.70;;;;;;5112917;27;20106;-77
2021/12/24 05:55:44;;;;;;;3.00;1.33;;;30.10;95.50;;;;;;5109707;27;20037;-78
2021/12/24 05:58:11;;;;;;;6.50;1.67;;;30.10;95.30;;;;;;5110287;27;20530;-77
2021/12/24 06:00:41;;;;;;;4.35;2.10;;;30.00;95.50;;;;;;5110770;27;20473;-76
2021/12/24 06:03:09;;;;;;;2.83;1.45;;;29.80;95.80;;;;;;5112155;27;20028;-76
2021/12/24 06:05:38;;;;;;;4.28;1.08;;;29.80;95.80;;;;;;5096832;28;20028;-76
2021/12/24 06:08:06;;;;;;;4.05;1.80;;;29.80;95.90;;;;;;5112794;28;20028;-75
2021/12/24 06:10:35;;;;;;;3.85;1.30;;;29.90;95.70;;;;;;5110234;28;20080;-75
2021/12/24 06:13:04;;;;;;;5.88;1.38;;;29.80;95.90;;;;;;5103625;28;20059;-75
2021/12/24 06:15:41;;;;;;;3.15;1.20;;;29.60;96.10;;;;;;5099686;28;20019;-79
2021/12/24 06:18:19;;;;;;;3.38;1.08;;;29.50;96.20;;;;;;5113270;27;20042;-80
2021/12/24 06:20:46;;;;;;;7.35;1.30;;;29.40;96.20;;;;;;5103222;28;20015;-80
2021/12/24 06:23:14;;;;;;;3.70;1.10;;;29.40;96.70;;;;;;5104761;28;20027;-77
2021/12/24 06:25:41;;;;;;;2.15;1.05;;;29.30;96.50;;;;;;5104711;27;20027;-78
2021/12/24 06:28:08;;;;;;;3.00;1.08;;;29.20;96.60;;;;;;5111869;28;20055;-77
2021/12/24 06:30:37;;;;;;;5.20;0.90;;;29.10;96.90;;;;;;5102917;28;20111;-78
2021/12/24 06:33:05;;;;;;;2.45;1.00;;;29.10;97.10;;;;;;5110943;28;20028;-79
2021/12/24 06:35:32;;;;;;;2.95;0.95;;;28.90;97.00;;;;;;5103477;28;20035;-77
2021/12/24 06:37:59;;;;;;;4.97;1.05;;;28.90;97.30;;;;;;5110007;28;20028;-77
2021/12/24 06:40:27;;;;;;;3.38;1.25;;;28.90;97.40;;;;;;5105718;28;20117;-78
2021/12/24 06:42:55;;;;;;;3.72;1.10;;;28.90;97.40;;;;;;5100561;28;20034;-78
2021/12/24 06:45:24;;;;;;;4.38;1.58;;;28.90;97.30;;;;;;5104644;28;20034;-77
2021/12/24 06:47:57;;;;;;;5.50;1.48;;;28.80;97.60;;;;;;5103759;28;20550;-76
2021/12/24 06:50:24;;;;;;;6.00;1.63;;;28.80;97.50;;;;;;5106544;28;20537;-77
2021/12/24 06:52:52;;;;;;;3.38;1.00;;;28.70;98.00;;;;;;5107467;28;20513;-78
2021/12/24 06:55:21;;;;;;;4.30;1.20;;;28.80;97.70;;;;;;5104965;28;20378;-78
2021/12/24 06:57:48;;;;;;;2.45;1.23;;;28.80;97.60;;;;;;5111282;28;20032;-78
2021/12/24 07:00:20;;;;;;;3.35;1.58;;;28.70;97.60;;;;;;5102732;28;20058;-78
2021/12/24 07:02:48;;;;;;;3.17;1.20;;;28.60;97.90;;;;;;5103248;28;20024;-77
2021/12/24 07:05:17;;;;;;;2.42;0.80;;;28.70;98.30;;;;;;5100938;28;20025;-78
2021/12/24 07:07:45;;;;;;;9.93;1.20;;;28.70;98.10;;;;;;5103381;28;20031;-77
2021/12/24 07:10:12;;;;;;;4.82;1.88;;;28.70;97.70;;;;;;5111605;28;20027;-77
2021/12/24 07:12:40;;;;;;;3.85;1.52;;;28.80;98.00;;;;;;5104606;28;20040;-79
2021/12/24 07:15:08;;;;;;;4.65;1.08;;;28.60;98.00;;;;;;5109517;28;20027;-78
2021/12/24 07:17:35;;;;;;;3.60;1.05;;;28.50;98.30;;;;;;5101898;28;20120;-78
2021/12/24 07:20:03;;;;;;;3.30;1.15;;;28.20;98.70;;;;;;5107511;28;20032;-78
2021/12/24 07:22:31;;;;;;;7.30;1.67;;;28.20;98.70;;;;;;5106419;28;20031;-78
2021/12/24 07:24:58;;;;;;;3.95;1.27;;;28.10;98.80;;;;;;5107384;27;20020;-79
2021/12/24 07:27:26;;;;;;;7.50;1.90;;;27.90;99.00;;;;;;5105850;28;20637;-78
2021/12/24 07:29:53;;;;;;;3.17;1.52;;;27.70;99.40;;;;;;5100551;28;20027;-78
2021/12/24 07:32:20;;;;;;;2.83;0.98;;;27.50;99.90;;;;;;5104973;28;21032;-79
2021/12/24 07:34:48;;;;;;;4.22;1.33;;;27.40;99.90;;;;;;5108569;28;20355;-79
2021/12/24 07:37:15;;;;;;;6.43;1.50;;;27.20;99.90;;;;;;5105343;28;20020;-79
2021/12/24 07:39:42;;;;;;;6.45;1.65;;;27.20;99.90;;;;;;5104836;28;20051;-80
2021/12/24 07:42:10;;;;;;;5.43;1.77;;;27.10;99.90;;;;;;5106476;27;20111;-80
2021/12/24 07:44:37;;;;;;;7.53;2.03;;;27.00;99.90;;;;;;5102785;28;20389;-79
2021/12/24 07:47:14;;;;;;;5.10;1.52;;;27.00;99.90;;;;;;5110187;28;20099;-79
2021/12/24 07:49:43;;;;;;;9.45;2.33;;;26.80;99.90;;;;;;5098849;28;20478;-80
2021/12/24 07:52:13;;;;;;;7.93;2.08;;;26.60;99.90;;;;;;5103982;28;20051;-80
2021/12/24 07:54:43;;;;;;;5.78;1.60;;;26.70;99.90;;;;;;5110010;28;20470;-79
2021/12/24 07:57:13;;;;;;;8.43;1.58;;;26.60;99.90;;;;;;5100620;28;20032;-78
2021/12/24 07:59:42;;;;;;;7.07;2.03;;;26.60;99.90;;;;;;5110388;28;20474;-80
2021/12/24 08:02:16;;;;;;;3.47;1.52;;;26.50;99.90;;;;;;5106743;28;20016;-81
2021/12/24 08:04:47;;;;;;;5.72;1.63;;;26.40;99.90;;;;;;5104443;28;20031;-79
2021/12/24 08:07:20;;;;;;;4.57;1.48;;;26.20;99.90;;;;;;5102642;28;20027;-77
2021/12/24 08:09:52;;;;;;;8.80;2.10;;;26.20;99.90;;;;;;5109460;28;20023;-78
2021/12/24 08:12:22;;;;;;;6.63;1.73;;;26.10;99.90;;;;;;5087925;28;20500;-78
2021/12/24 08:14:49;;;;;;;3.10;1.50;;;26.00;99.90;;;;;;5103357;28;20028;-80
2021/12/24 08:17:17;;;;;;;8.48;2.70;;;26.00;99.90;;;;;;5103261;28;20034;-80
2021/12/24 08:19:44;;;;;;;5.95;1.75;;;25.90;99.90;;;;;;5109767;28;20028;-80
2021/12/24 08:22:12;;;;;;;2.67;1.60;;;25.80;99.90;;;;;;5106885;28;20028;-79
2021/12/24 08:24:41;;;;;;;7.15;1.70;;;25.80;99.90;;;;;;5110944;28;20027;-80
2021/12/24 08:27:09;;;;;;;5.15;1.33;;;25.80;99.90;;;;;;5108903;28;20094;-79
2021/12/24 08:29:37;;;;;;;7.22;1.52;;;25.70;99.90;;;;;;5108170;28;20024;-79
2021/12/24 08:32:05;;;;;;;4.82;1.77;;;25.70;99.90;;;;;;5106348;28;20073;-79
2021/12/24 08:34:33;;;;;;;6.13;1.75;;;25.60;99.90;;;;;;5101122;28;20058;-79
2021/12/24 08:37:01;;;;;;;4.28;1.23;;;25.50;99.90;;;;;;5104813;28;20020;-80
2021/12/24 08:39:28;;;;;;;3.65;1.58;;;25.50;99.90;;;;;;5105634;28;20043;-79
2021/12/24 08:41:56;;;;;;;8.15;1.70;;;25.50;99.90;;;;;;5105374;28;20538;-81
2021/12/24 08:44:26;;;;;;;6.38;2.70;;;25.50;99.90;;;;;;5103108;28;20039;-79
2021/12/24 08:46:55;;;;;;;6.20;1.60;;;25.40;99.90;;;;;;5099297;28;20034;-80
2021/12/24 08:49:26;;;;;;;5.13;1.77;;;25.40;99.90;;;;;;5107268;28;20382;-79
2021/12/24 08:51:53;;;;;;;7.38;2.00;;;25.30;99.90;;;;;;5110142;28;20024;-78
2021/12/24 08:54:21;;;;;;;5.80;1.60;;;25.30;99.90;;;;;;5109608;28;20104;-80
2021/12/24 08:56:49;;;;;;;4.68;1.55;;;25.20;99.90;;;;;;5107937;28;20032;-80
2021/12/24 08:59:16;;;;;;;5.68;1.83;;;25.20;99.90;;;;;;5114765;28;20058;-80
2021/12/24 09:01:44;;;;;;;7.03;1.90;;;25.20;99.90;;;;;;5109761;27;20072;-80
2021/12/24 09:04:13;;;;;;;8.20;2.97;;;25.20;99.90;;;;;;5111766;28;20036;-79
2021/12/24 09:06:41;;;;;;;7.18;2.38;;;25.20;99.90;;;;;;5110071;28;20028;-79
2021/12/24 09:09:10;;;;;;;7.22;1.98;;;25.00;99.90;;;;;;5109956;28;20066;-80
2021/12/24 09:11:42;;;;;;;8.18;2.28;;;25.00;99.90;;;;;;5106104;28;20375;-79
2021/12/24 09:14:10;;;;;;;5.88;2.17;;;25.00;99.90;;;;;;5112417;27;20099;-79
2021/12/24 09:16:39;;;;;;;16.08;5.22;;;24.90;99.90;;;;;;5108310;28;20552;-79
2021/12/24 09:19:11;;;;;;;10.00;3.33;;;24.90;99.90;;;;;;5112205;28;20469;-78
2021/12/24 09:21:38;;;;;;;9.48;2.60;;;24.90;99.90;;;;;;5108352;28;20024;-78
2021/12/24 09:24:08;;;;;;;8.48;2.53;;;24.80;99.90;;;;;;5112971;28;20123;-78
2021/12/24 09:26:39;;;;;;;5.10;1.55;;;24.80;99.90;;;;;;5109471;28;20027;-78
2021/12/24 09:29:08;;;;;;;12.65;2.80;;;24.70;99.90;;;;;;5113717;28;20016;-80
2021/12/24 09:31:36;;;;;;;3.05;1.60;;;24.70;99.90;;;;;;5109675;28;20035;-79
2021/12/24 09:34:04;;;;;;;8.82;2.15;;;24.70;99.90;;;;;;5107192;28;20024;-79
2021/12/24 09:36:31;;;;;;;8.25;1.63;;;24.60;99.90;;;;;;5109128;28;20423;-80
2021/12/24 09:39:02;;;;;;;8.13;2.00;;;24.50;99.90;;;;;;5106291;28;20554;-80
2021/12/24 09:41:29;;;;;;;10.38;3.83;;;24.50;99.90;;;;;;5089730;28;20026;-79
2021/12/24 09:43:59;;;;;;;5.68;2.40;;;24.50;99.90;;;;;;5101677;28;20471;-78
2021/12/24 09:46:29;;;;;;;5.80;1.60;;;24.50;99.90;;;;;;5106878;28;20103;-80
2021/12/24 09:48:57;;;;;;;8.90;2.28;;;24.50;99.90;;;;;;5086944;28;20427;-81
2021/12/24 09:51:26;;;;;;;7.57;2.33;;;24.50;99.90;;;;;;5109923;28;20423;-79
2021/12/24 09:53:56;;;;;;;10.13;2.65;;;24.50;99.90;;;;;;5108535;28;20027;-80
2021/12/24 09:56:24;;;;;;;10.75;2.08;;;24.40;99.90;;;;;;5102474;28;20024;-79
2021/12/24 09:58:51;;;;;;;11.07;3.50;;;24.40;99.90;;;;;;5109253;28;20032;-81
2021/12/24 10:01:29;;;;;;;6.32;2.00;;;24.40;99.90;;;;;;5108071;28;20020;-79
2021/12/24 10:04:06;;;;;;;5.03;1.85;;;24.40;99.90;;;;;;5108301;28;20072;-80
2021/12/24 10:06:34;;;;;;;9.88;2.92;;;24.50;99.90;;;;;;5103941;28;20019;-80
2021/12/24 10:09:04;;;;;;;7.55;2.65;;;24.50;99.90;;;;;;5110862;28;20098;-78
2021/12/24 10:11:47;;;;;;;6.60;2.63;;;24.50;99.90;;;;;;5107847;28;20412;-78
2021/12/24 10:14:15;;;;;;;6.88;2.00;;;24.50;99.90;;;;;;5110565;28;20027;-80
2021/12/24 10:16:45;;;;;;;11.43;2.78;;;24.50;99.90;;;;;;5104579;28;20020;-79
2021/12/24 10:19:13;;;;;;;8.65;2.05;;;24.60;99.90;;;;;;5099196;28;20070;-79
2021/12/24 10:21:41;;;;;;;7.70;2.03;;;24.50;99.90;;;;;;5101779;28;20032;-80
2021/12/24 10:24:19;;;;;;;11.23;2.58;;;24.50;99.90;;;;;;5107643;28;20561;-77
2021/12/24 10:26:52;;;;;;;9.52;2.45;;;24.50;99.90;;;;;;5107931;28;20485;-78
2021/12/24 10:29:27;;;;;;;6.90;1.98;;;24.50;99.90;;;;;;5103013;28;20035;-77
2021/12/24 10:31:57;;;;;;;6.68;2.70;;;24.40;99.90;;;;;;5108797;28;20126;-79
2021/12/24 10:34:33;;;;;;;6.28;2.03;;;24.40;99.90;;;;;;5107927;28;20030;-78
2021/12/24 10:37:06;;;;;;;5.63;2.13;;;24.40;99.90;;;;;;5109563;28;20034;-79
2021/12/24 10:39:39;;;;;;;11.30;2.53;;;24.40;99.90;;;;;;5111526;28;20040;-77
2021/12/24 10:42:35;;;;;;;6.32;2.10;;;24.40;99.90;;;;;;5109886;28;20564;-79
2021/12/24 10:45:22;;;;;;;6.40;1.83;;;24.40;99.90;;;;;;5108246;28;20444;-79
2021/12/24 10:47:49;;;;;;;10.48;3.15;;;24.40;99.90;;;;;;5109899;28;20474;-80
2021/12/24 10:50:29;;;;;;;7.75;2.47;;;24.40;99.90;;;;;;5112418;28;20462;-79
2021/12/24 10:53:21;;;;;;;8.38;2.08;;;24.40;99.90;;;;;;5091940;28;20071;-79
2021/12/24 10:55:54;;;;;;;7.40;2.67;;;24.40;99.90;;;;;;5110347;28;20031;-78
2021/12/24 10:58:24;;;;;;;9.15;2.95;;;24.30;99.90;;;;;;5113004;28;20032;-79
2021/12/24 11:00:57;;;;;;;9.73;2.60;;;24.30;99.90;;;;;;5110632;28;20421;-77
2021/12/24 11:03:32;;;;;;;8.18;2.97;;;24.20;99.90;;;;;;5107772;28;20024;-78
2021/12/24 11:06:09;;;;;;;10.55;2.17;;;24.20;99.90;;;;;;5109838;28;20012;-78
2021/12/24 11:08:37;;;;;;;9.15;2.78;;;24.20;99.90;;;;;;5112631;28;20673;-78
2021/12/24 11:11:07;;;;;;;9.57;2.70;;;24.10;99.90;;;;;;5111148;28;20538;-78
2021/12/24 11:13:40;;;;;;;9.32;2.25;;;24.10;99.90;;;;;;5110982;28;20535;-78
2021/12/24 11:16:10;;;;;;;8.10;2.00;;;24.10;99.90;;;;;;5103636;28;20095;-80
2021/12/24 11:18:43;;;;;;;10.93;2.42;;;24.10;99.90;;;;;;5109081;28;20051;-78
2021/12/24 11:21:25;;;;;;;7.22;3.05;;;24.10;99.90;;;;;;5107502;28;20034;-78
2021/12/24 11:23:53;;;;;;;5.32;2.28;;;24.10;99.90;;;;;;5112565;28;20114;-78
2021/12/24 11:26:24;;;;;;;7.75;2.30;;;24.10;99.90;;;;;;5111469;28;20024;-78
2021/12/24 11:28:52;;;;;;;8.77;2.40;;;24.10;99.90;;;;;;5110591;28;20076;-78
2021/12/24 11:31:23;;;;;;;8.15;2.92;;;24.10;99.90;;;;;;5099431;28;20024;-80
2021/12/24 11:33:52;;;;;;;10.68;2.75;;;24.10;99.90;;;;;;5107903;28;20020;-79
2021/12/24 11:36:23;;;;;;;13.38;3.22;;;24.00;99.90;;;;;;5103199;28;20435;-79
2021/12/24 11:38:56;;;;;;;7.63;2.67;;;24.00;99.90;;;;;;5098830;28;20047;-80
2021/12/24 11:41:29;;;;;;;5.40;2.60;;;24.00;99.90;;;;;;5100177;27;20023;-80
2021/12/24 11:44:01;;;;;;;8.65;2.92;;;24.00;99.90;;;;;;5107701;27;20028;-78
2021/12/24 11:46:28;;;;;;;5.00;2.40;;;23.90;99.90;;;;;;5089482;28;20034;-80
2021/12/24 11:48:57;;;;;;;6.35;2.35;;;23.90;99.90;;;;;;5107278;28;20023;-77
2021/12/24 11:51:29;;;;;;;12.20;2.83;;;23.90;99.90;;;;;;5109685;27;20031;-76
2021/12/24 11:54:05;;;;;;;5.78;2.17;;;23.90;99.90;;;;;;5111741;27;20019;-78
2021/12/24 11:56:45;;;;;;;9.75;2.70;;;23.90;99.90;;;;;;5107612;28;20031;-80
2021/12/24 11:59:12;;;;;;;7.65;2.35;;;23.80;99.90;;;;;;5097002;28;20138;-78
2021/12/24 12:01:43;;;;;;;7.43;3.15;;;23.80;99.90;;;;;;5107562;28;20424;-79
2021/12/24 12:04:21;;;;;;;6.25;2.10;;;23.70;99.90;;;;;;5095475;28;20055;-79
2021/12/24 12:06:48;;;;;;;6.43;2.55;;;23.70;99.90;;;;;;5099987;28;20107;-77
2021/12/24 12:09:15;;;;;;;9.63;2.80;;;23.60;99.90;;;;;;5101400;28;20041;-77
2021/12/24 12:11:45;;;;;;;7.15;2.95;;;23.50;99.90;;;;;;5105068;28;20381;-77
2021/12/24 12:14:15;;;;;;;10.25;3.40;;;23.50;99.90;;;;;;5104583;28;20035;-77
2021/12/24 12:16:53;;;;;;;7.30;3.03;;;23.50;99.90;;;;;;5108328;28;20043;-78
2021/12/24 12:25:06;;;;;;;9.93;2.88;;;23.30;99.90;;;;;;5106840;28;20020;-79
2021/12/24 12:27:37;;;;;;;6.95;2.83;;;23.20;99.90;;;;;;5097112;28;20023;-77
2021/12/24 12:30:23;;;;;;;8.38;2.30;;;23.20;99.90;;;;;;5099878;28;20051;-78
2021/12/24 12:33:03;;;;;;;8.23;2.75;;;23.20;99.90;;;;;;5108874;28;20108;-77
2021/12/24 12:35:38;;;;;;;8.82;3.08;;;23.20;99.90;;;;;;5107101;28;20712;-78
2021/12/24 12:38:35;;;;;;;9.60;3.40;;;23.30;99.90;;;;;;5102202;28;20035;-79
2021/12/24 12:41:21;;;;;;;12.52;3.13;;;23.30;99.90;;;;;;5102940;28;20745;-77
2021/12/24 12:43:51;;;;;;;9.88;2.40;;;23.30;99.90;;;;;;5106463;28;20023;-77
2021/12/24 12:46:30;;;;;;;7.35;2.90;;;23.30;99.90;;;;;;5102707;28;20040;-76
2021/12/24 12:49:00;;;;;;;9.45;2.85;;;23.40;99.90;;;;;;5101881;28;20012;-78
2021/12/24 12:51:50;;;;;;;5.05;3.05;;;23.40;99.90;;;;;;5107887;28;20016;-79
2021/12/24 12:54:41;;;;;;;10.70;3.25;;;23.50;99.90;;;;;;5107805;28;20103;-78
2021/12/24 12:57:19;;;;;;;8.25;3.20;;;23.50;99.90;;;;;;5106713;28;20031;-78
2021/12/24 13:00:27;;;;;;;8.75;3.85;;;23.50;99.90;;;;;;5107357;28;20496;-79
2021/12/24 13:03:10;;;;;;;16.20;3.22;;;23.50;99.90;;;;;;5024659;28;20053;-79
2021/12/24 13:05:43;;;;;;;9.68;2.88;;;23.40;99.90;;;;;;5098126;28;20046;-77
2021/12/24 13:08:22;;;;;;;6.38;2.85;;;23.40;99.90;;;;;;5109391;28;20102;-78
2021/12/24 13:11:07;;;;;;;14.13;3.05;;;23.40;99.90;;;;;;5105894;28;20028;-79
2021/12/24 13:13:42;;;;;;;8.93;2.33;;;23.30;99.90;;;;;;5108189;28;20026;-78
2021/12/24 13:16:17;;;;;;;10.70;3.10;;;23.30;99.90;;;;;;5108079;28;20020;-79
2021/12/24 13:18:52;;;;;;;11.38;3.22;;;23.30;99.90;;;;;;5105791;28;20130;-78
2021/12/24 13:24:11;;;;;;;11.05;2.78;;;23.30;99.90;;;;;;5106964;28;20511;-78
2021/12/24 13:26:38;;;;;;;10.77;3.00;;;23.30;99.90;;;;;;5104746;28;20020;-78
2021/12/24 13:29:12;;;;;;;10.13;3.22;;;23.30;99.90;;;;;;5102625;28;20489;-79
2021/12/24 13:31:42;;;;;;;9.23;3.20;;;23.20;99.90;;;;;;5102240;28;20034;-80
2021/12/24 13:34:14;;;;;;;4.88;2.85;;;23.20;99.90;;;;;;5104643;28;20026;-77
2021/12/24 13:36:42;;;;;;;6.03;2.15;;;23.20;99.90;;;;;;5106592;27;20031;-79
2021/12/24 13:39:13;;;;;;;5.53;2.28;;;23.20;99.90;;;;;;5112100;28;20493;-77
2021/12/24 13:41:41;;;;;;;8.85;3.38;;;23.20;99.90;;;;;;5110806;27;20034;-77
2021/12/24 13:44:24;;;;;;;5.50;2.42;;;23.20;99.90;;;;;;5112747;27;20576;-77
2021/12/24 13:47:03;;;;;;;7.78;2.80;;;23.20;99.90;;;;;;5095814;28;20032;-77
2021/12/24 13:50:28;;;;;;;7.93;2.83;;;23.20;99.90;;;;;;5107366;27;20161;-77
2021/12/24 13:55:33;;;;;;;8.05;2.85;;;23.20;99.90;;;;;;5110937;28;20030;-77
2021/12/24 13:58:04;;;;;;;10.00;3.20;;;23.10;99.90;;;;;;5108806;28;20084;-77
2021/12/24 14:00:34;;;;;;;10.32;2.65;;;23.10;99.90;;;;;;5100456;27;20020;-78
2021/12/24 14:03:05;;;;;;;8.13;2.22;;;23.00;99.90;;;;;;5106791;28;20023;-79
2021/12/24 14:05:43;;;;;;;14.32;3.33;;;22.90;99.90;;;;;;5107797;28;20035;-78
2021/12/24 14:08:13;;;;;;;8.98;2.80;;;22.90;99.90;;;;;;5112058;28;20058;-78
2021/12/24 14:10:42;;;;;;;8.68;2.50;;;22.80;99.90;;;;;;5105019;28;20036;-78
2021/12/24 14:13:21;;;;;;;9.15;2.95;;;22.80;99.90;;;;;;5109395;28;20046;-78
2021/12/24 14:18:51;;;;;;;10.88;3.13;;;22.70;99.90;;;;;;5107526;28;20402;-78
2021/12/24 14:21:45;;;;;;;8.20;2.85;;;22.70;99.90;;;;;;5105232;28;20015;-79
2021/12/24 14:24:19;;;;;;;6.43;2.72;;;22.60;99.90;;;;;;5103551;28;20067;-78
2021/12/24 14:26:48;;;;;;;8.15;3.03;;;22.60;99.90;;;;;;5105258;28;20031;-79
2021/12/24 14:29:35;;;;;;;10.02;3.70;;;22.50;99.90;;;;;;5109982;28;20751;-78
2021/12/24 14:32:14;;;;;;;8.18;3.05;;;22.50;99.90;;;;;;5101175;27;20028;-77
2021/12/24 14:34:47;;;;;;;7.80;2.90;;;22.40;99.90;;;;;;5094391;28;20471;-77
2021/12/24 14:37:28;;;;;;;5.03;2.42;;;22.40;99.90;;;;;;5101881;28;20032;-79
2021/12/24 14:40:01;;;;;;;7.97;3.30;;;22.30;99.90;;;;;;5095986;28;20135;-79
2021/12/24 14:42:37;;;;;;;8.43;3.15;;;22.30;99.90;;;;;;5102323;27;20030;-79
2021/12/24 14:45:15;;;;;;;;;;;22.20;99.90;;;;;;5107748;28;20374;-79
2021/12/24 14:47:56;;;;;;;8.00;2.65;;;22.20;99.90;;;;;;5109212;27;19918;-78
2021/12/24 14:50:23;;;;;;;8.05;3.75;;;22.10;99.90;;;;;;5097514;28;20054;-78